Winter, Wisconsin
Current Conditions -  °F | °C
As of 7:15 AM on Friday 24 Oct 2014 (Local Time) from KRCX Reporting Station
Haze Haze  
Wind Chill: 45°   Ceiling: 100
Heat Index: 47°   Visibility: 1.5mi
Dew Point: 47°   Wind: 6mph
Humidity: 97%   Direction: 180°S
Pressure: 29.99"   Gusts: NA
Location:  45.82°N, 91.01°W
Report Text: KRCX 241215Z AUTO 18005KT 1 1/2SM BR OVC001 09/08 A2999 RMK AO2 T00850081
Loading
Personal Weather Stations






























Interactive Weather Map New forecast layout! Learn more

10-Day Weather Forecast

Advertisements
Track Severe Weather on mobile